createdAt,value
2022-09-02T00:02:09.090Z,2.92
2022-09-02T00:04:40.095Z,3.08
2022-09-02T00:07:10.766Z,3.28
2022-09-02T00:09:41.722Z,3.10
2022-09-02T00:12:13.494Z,3.40
2022-09-02T00:14:43.462Z,3.38
2022-09-02T00:17:13.904Z,3.38
2022-09-02T00:19:43.902Z,3.20
2022-09-02T00:22:14.536Z,3.25
2022-09-02T00:24:44.689Z,3.40
2022-09-02T00:27:15.379Z,3.20
2022-09-02T00:29:45.416Z,2.53
2022-09-02T00:32:16.049Z,3.08
2022-09-02T00:34:46.979Z,3.00
2022-09-02T00:37:18.426Z,4.05
2022-09-02T00:39:48.516Z,3.55
2022-09-02T00:42:19.582Z,4.00
2022-09-02T00:44:51.119Z,3.70
2022-09-02T00:47:23.300Z,3.67
2022-09-02T00:49:55.855Z,3.33
2022-09-02T00:52:34.850Z,3.15
2022-09-02T00:55:11.962Z,3.40
2022-09-02T00:57:58.717Z,3.83
2022-09-02T01:00:34.777Z,3.90
2022-09-02T01:03:10.136Z,3.25
2022-09-02T01:05:46.747Z,2.92
2022-09-02T01:10:51.131Z,3.65
2022-09-02T01:13:25.918Z,3.92
2022-09-02T01:16:26.889Z,4.05
2022-09-02T01:19:01.975Z,3.30
2022-09-02T01:21:32.226Z,3.38
2022-09-02T01:24:04.232Z,3.60
2022-09-02T01:26:34.788Z,3.53
2022-09-02T01:29:05.663Z,4.50
2022-09-02T01:31:36.184Z,4.35
2022-09-02T01:34:07.708Z,4.15
2022-09-02T01:36:41.619Z,4.93
2022-09-02T01:39:13.750Z,4.97
2022-09-02T01:41:43.925Z,5.07
2022-09-02T01:44:17.499Z,5.78
2022-09-02T01:46:50.310Z,6.60
2022-09-02T01:49:22.191Z,5.25
2022-09-02T01:51:56.303Z,5.15
2022-09-02T01:54:27.068Z,5.70
2022-09-02T01:56:57.034Z,5.57
2022-09-02T01:59:27.595Z,5.68
2022-09-02T02:01:57.894Z,5.50
2022-09-02T02:04:28.858Z,4.63
2022-09-02T02:07:00.553Z,4.75
2022-09-02T02:09:31.135Z,4.43
2022-09-02T02:12:05.812Z,5.40
2022-09-02T02:14:38.307Z,5.65
2022-09-02T02:17:08.454Z,5.13
2022-09-02T02:19:38.929Z,4.85
2022-09-02T02:22:08.965Z,5.20
2022-09-02T02:24:40.448Z,5.32
2022-09-02T02:27:10.615Z,5.90
2022-09-02T02:29:42.388Z,4.60
2022-09-02T02:32:12.715Z,4.22
2022-09-02T02:34:43.860Z,5.20
2022-09-02T02:37:14.648Z,4.05
2022-09-02T02:39:45.941Z,4.15
2022-09-02T02:42:15.998Z,4.28
2022-09-02T02:44:46.761Z,4.70
2022-09-02T02:49:50.678Z,4.35
2022-09-02T02:52:22.149Z,4.78
2022-09-02T02:54:56.214Z,4.68
2022-09-02T02:57:26.258Z,4.72
2022-09-02T02:59:59.284Z,5.28
2022-09-02T03:02:32.941Z,5.97
2022-09-02T03:05:05.661Z,5.80
2022-09-02T03:07:37.100Z,5.60
2022-09-02T03:10:10.013Z,5.82
2022-09-02T03:12:42.906Z,6.18
2022-09-02T03:15:13.378Z,7.50
2022-09-02T03:17:54.284Z,8.07
2022-09-02T03:20:26.154Z,7.22
2022-09-02T03:23:05.773Z,6.82
2022-09-02T03:25:37.576Z,5.05
2022-09-02T03:28:18.786Z,5.75
2022-09-02T03:30:49.311Z,5.50
2022-09-02T03:33:21.093Z,6.50
2022-09-02T03:35:51.222Z,7.38
2022-09-02T03:38:21.734Z,7.15
2022-09-02T03:40:51.890Z,8.07
2022-09-02T03:43:24.215Z,10.32
2022-09-02T03:45:54.769Z,10.38
2022-09-02T03:48:25.786Z,9.60
2022-09-02T03:50:55.823Z,9.75
2022-09-02T03:53:26.261Z,9.60
2022-09-02T03:56:05.943Z,8.25
2022-09-02T03:58:37.707Z,7.07
2022-09-02T04:01:08.574Z,6.75
2022-09-02T04:03:39.517Z,7.10
2022-09-02T04:06:13.103Z,8.27
2022-09-02T04:08:47.604Z,7.70
2022-09-02T04:11:20.731Z,10.60
2022-09-02T04:13:57.635Z,9.00
2022-09-02T04:16:32.266Z,9.73
2022-09-02T04:19:10.624Z,9.73
2022-09-02T04:21:43.392Z,10.18
2022-09-02T04:24:15.462Z,12.13
2022-09-02T04:26:49.237Z,11.20
2022-09-02T04:29:21.531Z,9.55
2022-09-02T04:31:55.266Z,8.65
2022-09-02T04:34:25.850Z,11.48
2022-09-02T04:36:56.122Z,10.98
2022-09-02T04:39:26.719Z,11.13
2022-09-02T04:41:56.850Z,10.35
2022-09-02T04:44:28.738Z,11.52
2022-09-02T04:46:59.722Z,11.23
2022-09-02T04:49:33.265Z,10.00
2022-09-02T04:52:03.520Z,13.73
2022-09-02T04:54:35.270Z,14.93
2022-09-02T04:57:07.014Z,17.77
2022-09-02T04:59:38.311Z,15.63
2022-09-02T05:02:13.219Z,15.38
2022-09-02T05:04:44.016Z,13.75
2022-09-02T05:07:24.640Z,12.90
2022-09-02T05:10:00.000Z,13.13
2022-09-02T05:12:35.735Z,13.10
2022-09-02T05:15:07.183Z,12.13
2022-09-02T05:17:38.393Z,11.93
2022-09-02T05:20:11.487Z,11.45
2022-09-02T05:22:42.422Z,12.77
2022-09-02T05:25:13.865Z,11.73
2022-09-02T05:30:14.534Z,12.73
2022-09-02T05:32:44.832Z,11.02
2022-09-02T05:35:17.579Z,12.15
2022-09-02T05:37:47.765Z,10.70
2022-09-02T05:40:22.494Z,11.23
2022-09-02T05:42:54.555Z,10.27
2022-09-02T05:45:25.609Z,10.00
2022-09-02T05:47:56.451Z,10.27
2022-09-02T05:50:31.791Z,10.13
2022-09-02T05:53:02.422Z,11.45
2022-09-02T05:55:33.671Z,11.73
2022-09-02T05:58:05.062Z,12.88
2022-09-02T06:00:36.122Z,11.85
2022-09-02T06:03:06.235Z,11.15
2022-09-02T06:05:43.634Z,9.38
2022-09-02T06:08:22.799Z,9.40
2022-09-02T06:10:54.072Z,8.65
2022-09-02T06:13:28.555Z,8.45
2022-09-02T06:15:59.658Z,8.77
2022-09-02T06:18:33.517Z,8.18
2022-09-02T06:21:06.857Z,7.88
2022-09-02T06:23:43.103Z,8.82
2022-09-02T06:26:18.110Z,8.43
2022-09-02T06:28:49.341Z,8.50
2022-09-02T06:33:58.581Z,8.90
2022-09-02T06:36:32.267Z,9.25
2022-09-02T06:39:04.107Z,8.63
2022-09-02T06:41:36.520Z,8.20
2022-09-02T06:44:15.140Z,7.72
2022-09-02T06:46:50.742Z,7.50
2022-09-02T06:49:27.143Z,8.10
2022-09-02T06:52:01.525Z,8.57
2022-09-02T06:54:36.246Z,6.70
2022-09-02T06:57:12.228Z,6.60
2022-09-02T06:59:42.858Z,6.38
2022-09-02T07:05:09.330Z,4.82
2022-09-02T07:07:41.849Z,4.93
2022-09-02T07:10:16.304Z,5.28
2022-09-02T07:12:54.078Z,5.53
2022-09-02T07:15:24.714Z,4.78
2022-09-02T07:17:55.288Z,4.78
2022-09-02T07:20:35.633Z,4.75
2022-09-02T07:23:06.377Z,4.28
2022-09-02T07:25:42.536Z,4.20
2022-09-02T07:28:17.582Z,5.03
2022-09-02T07:30:48.547Z,4.80
2022-09-02T07:33:21.415Z,4.88
2022-09-02T07:35:54.348Z,5.53
2022-09-02T07:38:25.085Z,5.75
2022-09-02T07:40:56.952Z,5.72
2022-09-02T07:43:34.334Z,4.93
2022-09-02T07:46:08.613Z,4.53
2022-09-02T07:48:39.029Z,4.22
2022-09-02T07:51:12.235Z,4.32
2022-09-02T07:53:42.952Z,4.10
2022-09-02T07:56:16.074Z,4.22
2022-09-02T07:58:47.725Z,3.90
2022-09-02T08:01:22.721Z,3.83
2022-09-02T08:06:38.485Z,3.75
2022-09-02T08:09:13.945Z,3.60
2022-09-02T08:11:47.661Z,2.88
2022-09-02T08:14:23.739Z,3.13
2022-09-02T08:16:57.301Z,3.00
2022-09-02T08:19:28.521Z,3.30
2022-09-02T08:22:06.526Z,2.70
2022-09-02T08:24:37.134Z,2.83
2022-09-02T08:27:08.209Z,2.60
2022-09-02T08:29:38.350Z,2.50
2022-09-02T08:32:09.050Z,2.20
2022-09-02T08:34:39.083Z,2.20
2022-09-02T08:37:09.787Z,2.50
2022-09-02T08:39:39.788Z,2.60
2022-09-02T08:42:36.563Z,2.40
2022-09-02T08:45:40.190Z,2.10
2022-09-02T08:48:40.020Z,2.10
2022-09-02T08:51:20.177Z,2.30
2022-09-02T08:54:02.059Z,2.20
2022-09-02T08:56:33.379Z,1.73
2022-09-02T08:59:05.454Z,1.75
2022-09-02T09:02:17.789Z,1.88
2022-09-02T09:05:22.750Z,2.05
2022-09-02T09:08:21.494Z,2.03
2022-09-02T09:10:59.191Z,2.00
2022-09-02T09:13:59.871Z,1.70
2022-09-02T09:16:53.719Z,1.60
2022-09-02T09:19:35.763Z,1.90
2022-09-02T09:22:06.481Z,1.80
2022-09-02T09:24:45.731Z,1.83
2022-09-02T09:27:19.539Z,1.80
2022-09-02T09:29:50.878Z,1.80
2022-09-02T09:32:43.132Z,1.50
2022-09-02T09:35:15.264Z,1.38
2022-09-02T09:37:53.659Z,2.00
2022-09-02T09:40:28.850Z,1.73
2022-09-02T09:43:14.510Z,2.30
2022-09-02T09:45:51.090Z,2.20
2022-09-02T09:48:34.963Z,1.83
2022-09-02T09:51:05.034Z,2.33
2022-09-02T09:53:37.343Z,2.30
2022-09-02T09:56:15.709Z,1.85
2022-09-02T09:58:47.674Z,1.77
2022-09-02T10:01:22.492Z,1.80
2022-09-02T10:03:55.199Z,2.75
2022-09-02T10:06:38.565Z,2.08
2022-09-02T10:09:31.971Z,1.80
2022-09-02T10:12:04.148Z,1.90
2022-09-02T10:14:38.902Z,2.08
2022-09-02T10:17:08.850Z,1.92
2022-09-02T10:19:56.219Z,1.67
2022-09-02T10:23:00.548Z,2.20
2022-09-02T10:25:36.789Z,2.47
2022-09-02T10:28:43.957Z,2.55
2022-09-02T10:31:25.195Z,3.53
2022-09-02T10:34:07.376Z,3.20
2022-09-02T10:37:12.081Z,2.38
2022-09-02T10:40:00.228Z,2.47
2022-09-02T10:42:44.398Z,2.65
2022-09-02T10:45:14.349Z,2.33
2022-09-02T10:47:49.812Z,3.67
2022-09-02T10:50:36.462Z,4.20
2022-09-02T10:53:18.541Z,3.08
2022-09-02T10:55:55.838Z,2.88
2022-09-02T10:58:38.159Z,4.00
2022-09-02T11:01:19.578Z,4.43
2022-09-02T11:04:25.030Z,5.13
2022-09-02T11:07:03.018Z,3.83
2022-09-02T11:09:45.627Z,4.03
2022-09-02T11:12:30.862Z,4.30
2022-09-02T11:15:21.322Z,3.20
2022-09-02T11:17:59.793Z,4.60
2022-09-02T11:20:55.145Z,3.92
2022-09-02T11:23:37.247Z,4.35
2022-09-02T11:26:20.819Z,3.65
2022-09-02T11:29:03.012Z,3.75
2022-09-02T11:31:44.333Z,3.38
2022-09-02T11:34:20.766Z,3.05
2022-09-02T11:36:51.495Z,3.30
2022-09-02T11:39:54.431Z,2.60
2022-09-02T11:42:35.583Z,2.80
2022-09-02T11:45:25.361Z,2.70
2022-09-02T11:47:58.980Z,2.38
2022-09-02T11:50:39.775Z,2.60
2022-09-02T11:53:44.255Z,4.07
2022-09-02T11:56:23.088Z,3.20
2022-09-02T11:58:55.094Z,2.60
2022-09-02T12:01:35.990Z,2.80
2022-09-02T12:04:55.868Z,2.90
2022-09-02T12:07:10.576Z,3.10
2022-09-02T12:09:50.872Z,2.80
2022-09-02T12:12:42.607Z,2.80
2022-09-02T12:15:20.362Z,2.55
2022-09-02T12:17:53.298Z,2.88
2022-09-02T12:20:40.390Z,2.72
2022-09-02T12:23:56.622Z,3.35
2022-09-02T12:26:42.385Z,2.63
2022-09-02T12:29:34.376Z,2.80
2022-09-02T12:32:07.202Z,2.75
2022-09-02T12:34:37.390Z,3.25
2022-09-02T12:37:08.030Z,3.20
2022-09-02T12:39:44.235Z,2.67
2022-09-02T12:42:30.118Z,2.90
2022-09-02T12:45:29.026Z,3.03
2022-09-02T12:48:17.262Z,2.90
2022-09-02T12:50:56.294Z,2.90
2022-09-02T12:53:26.644Z,3.08
2022-09-02T12:56:02.926Z,3.20
2022-09-02T12:58:50.986Z,2.90
2022-09-02T13:01:53.695Z,3.30
2022-09-02T13:04:51.065Z,3.15
2022-09-02T13:07:30.115Z,3.10
2022-09-02T13:10:22.770Z,2.75
2022-09-02T13:12:59.200Z,3.38
2022-09-02T13:15:50.796Z,3.08
2022-09-02T13:18:42.390Z,3.13
2022-09-02T13:21:54.317Z,3.45
2022-09-02T13:25:17.390Z,3.10
2022-09-02T13:28:17.624Z,3.50
2022-09-02T13:31:00.088Z,3.17
2022-09-02T13:33:31.507Z,3.25
2022-09-02T13:36:02.221Z,3.20
2022-09-02T13:38:34.077Z,2.90
2022-09-02T13:41:04.575Z,3.20
2022-09-02T13:43:35.549Z,4.15
2022-09-02T13:46:06.634Z,4.00
2022-09-02T13:48:41.914Z,4.18
2022-09-02T13:51:16.220Z,4.30
2022-09-02T13:54:22.556Z,3.70
2022-09-02T13:56:42.921Z,3.70
2022-09-02T13:59:14.022Z,3.95
2022-09-02T14:01:44.663Z,4.20
2022-09-02T14:04:18.386Z,4.38
2022-09-02T14:06:50.750Z,4.60
2022-09-02T14:09:30.694Z,4.88
2022-09-02T14:12:06.501Z,4.28
2022-09-02T14:14:38.238Z,5.22
2022-09-02T14:17:27.151Z,4.80
2022-09-02T14:20:23.411Z,4.53
2022-09-02T14:22:59.329Z,4.53
2022-09-02T14:25:39.322Z,4.47
2022-09-02T14:28:21.242Z,4.10
2022-09-02T14:31:08.627Z,4.53
2022-09-02T14:33:44.953Z,4.55
2022-09-02T14:36:33.745Z,4.43
2022-09-02T14:39:30.732Z,5.20
2022-09-02T14:42:01.463Z,5.10
2022-09-02T14:44:37.418Z,5.30
2022-09-02T14:47:15.078Z,5.47
2022-09-02T14:49:56.576Z,4.88
2022-09-02T14:52:34.603Z,4.28
2022-09-02T14:55:09.926Z,4.63
2022-09-02T14:57:43.218Z,5.18
2022-09-02T15:00:20.675Z,5.20
2022-09-02T15:02:57.803Z,4.47
2022-09-02T15:07:58.558Z,4.63
2022-09-02T15:10:29.063Z,4.20
2022-09-02T15:13:00.292Z,4.57
2022-09-02T15:15:30.566Z,3.90
2022-09-02T15:18:01.621Z,4.00
2022-09-02T15:20:32.045Z,4.30
2022-09-02T15:23:02.807Z,3.88
2022-09-02T15:25:32.992Z,4.10
2022-09-02T15:28:03.947Z,4.30
2022-09-02T15:30:37.316Z,4.80
2022-09-02T15:33:10.164Z,5.25
2022-09-02T15:35:48.526Z,4.13
2022-09-02T15:38:19.665Z,3.80
2022-09-02T15:40:49.848Z,3.70
2022-09-02T15:43:22.500Z,3.03
2022-09-02T15:45:52.687Z,3.30
2022-09-02T15:48:23.472Z,3.38
2022-09-02T15:50:54.521Z,2.97
2022-09-02T15:53:25.329Z,3.15
2022-09-02T15:55:55.494Z,2.92
2022-09-02T15:58:26.270Z,3.22
2022-09-02T16:00:56.559Z,3.10
2022-09-02T16:03:29.286Z,3.05
2022-09-02T16:06:07.767Z,3.42
2022-09-02T16:08:38.857Z,3.50
2022-09-02T16:11:10.215Z,4.18
2022-09-02T16:13:41.142Z,5.40
2022-09-02T16:16:13.947Z,3.55
2022-09-02T16:18:46.660Z,2.90
2022-09-02T16:21:19.965Z,2.97
2022-09-02T16:23:52.332Z,2.92
2022-09-02T16:26:43.576Z,2.10
2022-09-02T16:29:17.233Z,1.98
2022-09-02T16:32:13.987Z,1.55
2022-09-02T16:34:40.590Z,1.30
2022-09-02T16:37:10.795Z,1.20
2022-09-02T16:39:42.025Z,1.33
2022-09-02T16:42:12.315Z,1.40
2022-09-02T16:44:43.291Z,1.10
2022-09-02T16:47:14.028Z,1.20
2022-09-02T16:49:47.324Z,1.10
2022-09-02T16:52:17.620Z,1.08
2022-09-02T16:54:49.251Z,1.00
2022-09-02T16:57:22.143Z,1.20
2022-09-02T16:59:53.107Z,1.20
2022-09-02T17:02:24.553Z,1.08
2022-09-02T17:04:55.426Z,0.70
2022-09-02T17:07:25.602Z,1.00
2022-09-02T17:09:56.600Z,1.08
2022-09-02T17:12:27.061Z,1.15
2022-09-02T17:14:57.951Z,0.93
2022-09-02T17:17:28.246Z,1.05
2022-09-02T17:19:59.183Z,0.70
2022-09-02T17:22:29.350Z,1.05
2022-09-02T17:25:00.975Z,0.55
2022-09-02T17:27:31.143Z,0.70
2022-09-02T17:30:01.927Z,0.50
2022-09-02T17:32:32.279Z,0.40
2022-09-02T17:35:03.351Z,0.63
2022-09-02T17:37:38.457Z,0.45
2022-09-02T17:40:31.267Z,0.77
2022-09-02T17:43:01.542Z,0.50
2022-09-02T17:45:32.404Z,0.63
2022-09-02T17:48:31.805Z,0.95
2022-09-02T18:05:56.745Z,0.70
2022-09-02T18:14:57.508Z,0.70
2022-09-02T18:17:39.218Z,0.80
2022-09-02T18:20:45.463Z,0.93
2022-09-02T18:23:27.296Z,0.70
2022-09-02T18:26:23.995Z,0.85
2022-09-02T18:29:04.215Z,0.82
2022-09-02T18:32:11.588Z,0.70
2022-09-02T18:34:56.375Z,0.50
2022-09-02T18:37:47.557Z,1.00
2022-09-02T18:40:26.534Z,0.60
2022-09-02T18:43:16.829Z,0.93
2022-09-02T18:45:52.611Z,0.80
2022-09-02T18:48:32.884Z,0.80
2022-09-02T18:51:32.433Z,0.90
2022-09-02T18:54:27.005Z,1.00
2022-09-02T18:57:02.339Z,0.90
2022-09-02T18:59:58.627Z,0.65
2022-09-02T19:02:55.836Z,0.60
2022-09-02T19:05:30.864Z,0.68
2022-09-02T19:08:31.241Z,0.60
2022-09-02T19:11:06.434Z,1.73
2022-09-02T19:13:57.647Z,2.10
2022-09-02T19:16:30.968Z,1.88
2022-09-02T19:19:01.218Z,1.90
2022-09-02T19:21:47.518Z,1.70
2022-09-02T19:24:33.675Z,2.08
2022-09-02T19:27:08.847Z,1.08
2022-09-02T19:29:44.230Z,1.42
2022-09-02T19:32:16.821Z,1.60
2022-09-02T19:34:47.491Z,1.75
2022-09-02T19:37:18.715Z,1.80
2022-09-02T19:39:53.281Z,1.45
2022-09-02T19:42:25.338Z,1.27
2022-09-02T19:44:55.338Z,1.17
2022-09-02T19:50:16.562Z,1.38
2022-09-02T19:52:47.776Z,1.05
2022-09-02T19:55:19.375Z,0.90
2022-09-02T19:57:52.434Z,0.90
2022-09-02T20:00:25.394Z,1.00
2022-09-02T20:02:57.834Z,0.70
2022-09-02T20:05:28.038Z,0.77
2022-09-02T20:07:58.843Z,0.63
2022-09-02T20:13:01.335Z,0.80
2022-09-02T20:15:31.450Z,0.70
2022-09-02T20:18:28.483Z,1.52
2022-09-02T20:21:01.217Z,0.90
2022-09-02T20:23:34.950Z,0.73
2022-09-02T20:26:07.774Z,0.90
2022-09-02T20:29:03.015Z,0.95
2022-09-02T20:31:38.383Z,1.33
2022-09-02T20:34:47.763Z,1.38
2022-09-02T20:37:42.289Z,0.75
2022-09-02T20:40:32.910Z,0.90
2022-09-02T20:43:37.968Z,0.80
2022-09-02T20:46:28.854Z,0.80
2022-09-02T20:49:17.182Z,1.00
2022-09-02T20:52:05.494Z,0.60
2022-09-02T20:54:41.876Z,1.10
2022-09-02T20:57:21.660Z,0.70
2022-09-02T21:00:14.575Z,0.80
2022-09-02T21:02:47.892Z,1.60
2022-09-02T21:05:22.979Z,1.55
2022-09-02T21:08:05.581Z,1.70
2022-09-02T21:10:40.394Z,1.63
2022-09-02T21:13:36.734Z,1.58
2022-09-02T21:16:32.584Z,1.40
2022-09-02T21:19:25.322Z,1.27
2022-09-02T21:22:02.650Z,1.08
2022-09-02T21:25:00.627Z,1.20
2022-09-02T21:27:46.577Z,1.02
2022-09-02T21:30:26.277Z,1.00
2022-09-02T21:33:04.491Z,0.98
2022-09-02T21:35:55.481Z,1.10
2022-09-02T21:38:31.636Z,1.10
2022-09-02T21:41:09.214Z,1.10
2022-09-02T21:46:17.674Z,1.20
2022-09-02T21:49:13.880Z,1.35
2022-09-02T21:51:51.700Z,1.23
2022-09-02T21:54:33.261Z,0.80
2022-09-02T21:57:44.769Z,1.10
2022-09-02T22:00:18.461Z,1.10
2022-09-02T22:02:59.018Z,0.98
2022-09-02T22:05:40.509Z,1.30
2022-09-02T22:08:28.495Z,1.25
2022-09-02T22:11:07.101Z,1.00
2022-09-02T22:13:41.884Z,1.27
2022-09-02T22:16:27.898Z,0.95
2022-09-02T22:19:03.414Z,0.90
2022-09-02T22:21:49.221Z,1.10
2022-09-02T22:24:28.577Z,0.90
2022-09-02T22:27:22.186Z,0.73
2022-09-02T22:30:12.762Z,1.00
2022-09-02T22:33:03.719Z,1.00
2022-09-02T22:36:01.948Z,0.90
2022-09-02T22:38:49.082Z,0.80
2022-09-02T22:41:25.583Z,1.05
2022-09-02T22:44:05.118Z,1.40
2022-09-02T22:46:53.744Z,1.95
2022-09-02T22:49:45.739Z,1.52
2022-09-02T22:52:44.900Z,1.45
2022-09-02T22:55:36.152Z,0.93
2022-09-02T22:58:09.264Z,2.92
2022-09-02T23:00:58.112Z,4.07
2022-09-02T23:03:49.136Z,1.52
2022-09-02T23:06:32.327Z,3.47
2022-09-02T23:09:12.710Z,2.80
2022-09-02T23:12:11.648Z,2.33
2022-09-02T23:15:12.040Z,2.75
2022-09-02T23:18:14.489Z,2.65
2022-09-02T23:21:08.509Z,2.50
2022-09-02T23:24:04.370Z,2.30
2022-09-02T23:27:15.063Z,1.50
2022-09-02T23:29:45.958Z,1.63
2022-09-02T23:32:43.481Z,2.10
2022-09-02T23:35:22.534Z,1.90
2022-09-02T23:38:13.753Z,1.70
2022-09-02T23:40:51.717Z,1.80
2022-09-02T23:43:25.695Z,1.90
2022-09-02T23:45:57.129Z,3.05
2022-09-02T23:48:51.720Z,3.03
2022-09-02T23:51:34.111Z,4.30
2022-09-02T23:54:21.730Z,4.10
2022-09-02T23:56:59.717Z,4.05
2022-09-02T23:59:57.973Z,4.18
